Time;durP1;ratioP1;P1;durP2;ratioP2;P2;SDS_P1;SDS_P2;PMS_P1;PMS_P2;Temp;Humidity;BMP_temperature;BMP_pressure;BME280_temperature;BME280_humidity;BME280_pressure;Samples;Min_cycle;Max_cycle;Signal;HPM_P1;HPM_P2
2021/11/20 00:01:20;;;;;;;4.22;2.97;;;17.90;81.60;;;;;;5070465;28;20105;-77
2021/11/20 00:03:47;;;;;;;4.68;3.15;;;17.90;81.60;;;;;;5070535;28;20464;-77
2021/11/20 00:06:16;;;;;;;2.90;2.47;;;17.90;81.60;;;;;;5070394;28;20150;-77
2021/11/20 00:08:42;;;;;;;7.10;3.15;;;17.90;81.60;;;;;;5087715;28;20047;-77
2021/11/20 00:11:10;;;;;;;3.90;2.78;;;17.80;81.60;;;;;;5073768;28;20385;-77
2021/11/20 00:13:37;;;;;;;4.47;2.88;;;17.80;81.50;;;;;;5070597;28;20036;-77
2021/11/20 00:16:06;;;;;;;4.00;2.75;;;17.80;81.60;;;;;;5070216;28;20021;-77
2021/11/20 00:18:32;;;;;;;4.38;3.03;;;17.80;81.60;;;;;;5085657;28;20082;-76
2021/11/20 00:21:01;;;;;;;4.50;2.70;;;17.80;81.70;;;;;;5091047;28;20031;-77
2021/11/20 00:23:33;;;;;;;4.97;2.35;;;17.80;81.70;;;;;;5091399;28;20012;-77
2021/11/20 00:26:00;;;;;;;3.50;2.53;;;17.80;81.70;;;;;;5094080;28;20089;-77
2021/11/20 00:31:27;;;;;;;5.50;2.72;;;17.70;81.80;;;;;;5062096;28;20627;-77
2021/11/20 00:33:53;;;;;;;3.58;2.78;;;17.70;81.80;;;;;;5073815;28;20020;-78
2021/11/20 00:36:21;;;;;;;4.10;2.65;;;17.70;81.80;;;;;;5073647;28;20443;-77
2021/11/20 00:38:47;;;;;;;3.95;2.45;;;17.70;81.80;;;;;;5090609;28;20032;-76
2021/11/20 00:41:20;;;;;;;3.10;2.42;;;17.70;81.80;;;;;;5092963;28;20028;-77
2021/11/20 00:43:47;;;;;;;3.83;2.78;;;17.70;81.80;;;;;;5094012;28;20028;-78
2021/11/20 00:46:15;;;;;;;4.18;2.85;;;17.70;81.80;;;;;;5093476;28;20028;-78
2021/11/20 00:48:43;;;;;;;4.00;2.47;;;17.70;81.80;;;;;;5058719;28;20035;-76
2021/11/20 00:51:10;;;;;;;3.95;2.83;;;17.70;81.80;;;;;;5073436;28;20036;-77
2021/11/20 00:53:37;;;;;;;3.65;2.67;;;17.60;81.80;;;;;;5073558;28;20025;-77
2021/11/20 00:56:05;;;;;;;3.70;2.70;;;17.60;81.70;;;;;;5088110;28;20028;-77
2021/11/20 00:58:31;;;;;;;4.22;2.95;;;17.60;81.80;;;;;;5083194;28;20058;-76
2021/11/20 01:01:03;;;;;;;4.13;2.50;;;17.60;81.70;;;;;;5093916;28;20028;-76
2021/11/20 01:03:30;;;;;;;3.80;2.60;;;17.60;81.90;;;;;;5093953;28;20365;-77
2021/11/20 01:05:57;;;;;;;4.65;2.83;;;17.60;81.70;;;;;;5093495;28;20216;-76
2021/11/20 01:08:25;;;;;;;3.40;2.80;;;17.60;81.70;;;;;;5074707;28;20032;-77
2021/11/20 01:10:58;;;;;;;4.47;3.03;;;17.60;81.70;;;;;;5072899;28;20044;-78
2021/11/20 01:13:23;;;;;;;4.35;2.70;;;17.60;81.70;;;;;;5072920;28;20016;-77
2021/11/20 01:16:03;;;;;;;3.63;2.78;;;17.60;81.80;;;;;;5073293;28;20025;-76
2021/11/20 01:18:31;;;;;;;3.58;2.83;;;17.60;81.80;;;;;;5091415;28;20028;-77
2021/11/20 01:20:56;;;;;;;3.70;2.92;;;17.60;81.80;;;;;;5093514;28;20031;-78
2021/11/20 01:23:25;;;;;;;3.95;2.80;;;17.50;81.80;;;;;;5093020;28;20032;-77
2021/11/20 01:25:51;;;;;;;5.00;2.97;;;17.50;81.80;;;;;;5079446;28;20024;-77
2021/11/20 01:28:18;;;;;;;5.28;2.80;;;17.50;81.80;;;;;;5088648;28;20064;-78
2021/11/20 01:30:44;;;;;;;4.45;2.92;;;17.50;82.50;;;;;;5092971;28;20036;-77
2021/11/20 01:33:10;;;;;;;3.00;2.45;;;17.50;81.90;;;;;;5074461;28;20016;-77
2021/11/20 01:35:37;;;;;;;3.80;3.03;;;17.50;81.90;;;;;;5092528;28;20094;-76
2021/11/20 01:38:04;;;;;;;3.60;2.67;;;17.50;82.00;;;;;;5077871;28;20484;-77
2021/11/20 01:40:34;;;;;;;4.10;3.10;;;17.50;82.10;;;;;;5082446;28;20043;-77
2021/11/20 01:43:00;;;;;;;5.78;3.22;;;17.40;82.10;;;;;;5093112;28;20017;-76
2021/11/20 01:45:34;;;;;;;4.60;2.50;;;17.50;82.20;;;;;;5092922;28;20032;-76
2021/11/20 01:48:26;;;;;;;5.20;2.97;;;17.50;82.10;;;;;;5079519;28;20028;-77
2021/11/20 01:51:01;;;;;;;3.17;2.88;;;17.50;82.20;;;;;;5054373;28;20028;-77
2021/11/20 01:53:36;;;;;;;4.00;2.55;;;17.50;82.20;;;;;;5072799;28;20074;-77
2021/11/20 01:56:24;;;;;;;5.07;3.40;;;17.40;82.10;;;;;;5086456;28;20549;-76
2021/11/20 01:59:03;;;;;;;4.53;2.83;;;17.40;82.10;;;;;;5072485;28;20036;-77
2021/11/20 02:01:49;;;;;;;3.58;2.97;;;17.40;82.00;;;;;;5072362;28;20039;-77
2021/11/20 02:04:39;;;;;;;3.22;2.42;;;17.40;82.00;;;;;;5071978;28;20027;-77
2021/11/20 02:07:09;;;;;;;4.10;2.67;;;17.40;82.00;;;;;;5076219;28;20504;-77
2021/11/20 02:09:51;;;;;;;4.60;2.95;;;17.40;82.10;;;;;;5089504;28;20032;-77
2021/11/20 02:12:39;;;;;;;3.53;2.55;;;17.40;82.00;;;;;;5071823;28;20055;-77
2021/11/20 02:15:10;;;;;;;3.92;2.95;;;17.40;82.00;;;;;;5071752;28;20032;-77
2021/11/20 02:17:43;;;;;;;3.47;2.63;;;17.40;82.00;;;;;;5079983;28;20078;-78
2021/11/20 02:20:23;;;;;;;4.38;2.80;;;17.40;82.10;;;;;;5091846;28;20024;-77
2021/11/20 02:22:48;;;;;;;4.15;2.78;;;17.30;82.10;;;;;;5092123;28;20024;-77
2021/11/20 02:25:14;;;;;;;3.35;2.63;;;17.30;82.10;;;;;;5083519;28;20074;-77
2021/11/20 02:27:48;;;;;;;4.07;2.80;;;17.40;82.20;;;;;;5062119;28;20111;-77
2021/11/20 02:30:20;;;;;;;3.47;2.50;;;17.30;82.10;;;;;;5091697;28;20032;-77
2021/11/20 02:32:51;;;;;;;4.38;2.95;;;17.30;82.20;;;;;;5091894;28;20383;-76
2021/11/20 02:35:23;;;;;;;2.63;2.17;;;17.30;82.30;;;;;;5091663;28;20048;-77
2021/11/20 02:37:48;;;;;;;3.45;2.70;;;17.30;82.30;;;;;;5077198;28;20138;-77
2021/11/20 02:40:16;;;;;;;3.85;2.72;;;17.30;82.30;;;;;;5078410;28;20035;-77
2021/11/20 02:42:43;;;;;;;3.45;2.40;;;17.30;82.20;;;;;;5091778;28;20506;-77
2021/11/20 02:45:27;;;;;;;3.55;2.40;;;17.30;82.40;;;;;;5091263;28;20107;-77
2021/11/20 02:47:53;;;;;;;2.60;2.05;;;17.20;82.20;;;;;;5058271;28;20128;-77
2021/11/20 02:50:38;;;;;;;3.63;2.83;;;17.30;82.30;;;;;;5071382;28;20541;-77
2021/11/20 02:53:07;;;;;;;3.38;2.70;;;17.30;82.30;;;;;;5071175;28;20024;-76
2021/11/20 02:55:34;;;;;;;3.38;2.30;;;17.20;82.20;;;;;;5080804;28;20024;-76
2021/11/20 02:57:59;;;;;;;3.55;2.55;;;17.20;82.20;;;;;;5077497;28;20385;-76
2021/11/20 03:00:26;;;;;;;4.50;3.15;;;17.30;82.30;;;;;;5071073;28;20028;-77
2021/11/20 03:02:52;;;;;;;3.80;3.15;;;17.20;82.20;;;;;;5071322;28;20048;-77
2021/11/20 03:05:20;;;;;;;4.10;2.88;;;17.20;82.20;;;;;;5053080;28;20067;-77
2021/11/20 03:07:45;;;;;;;4.22;2.60;;;17.20;82.20;;;;;;5083094;28;20024;-77
2021/11/20 03:10:12;;;;;;;4.28;3.15;;;17.20;82.40;;;;;;5083753;28;20519;-77
2021/11/20 03:12:38;;;;;;;3.70;2.95;;;17.20;82.30;;;;;;5071131;28;20021;-76
2021/11/20 03:15:05;;;;;;;3.95;2.92;;;17.20;82.40;;;;;;5071685;28;20555;-77
2021/11/20 03:17:32;;;;;;;3.67;2.40;;;17.20;82.40;;;;;;5081087;28;20035;-77
2021/11/20 03:19:58;;;;;;;3.63;2.92;;;17.20;82.40;;;;;;5073339;28;20559;-77
2021/11/20 03:22:36;;;;;;;3.15;2.38;;;17.20;82.40;;;;;;5091037;28;20028;-77
2021/11/20 03:25:03;;;;;;;4.35;2.78;;;17.20;82.40;;;;;;5072145;28;20017;-76
2021/11/20 03:27:29;;;;;;;3.83;2.63;;;17.20;82.50;;;;;;5091134;28;20020;-77
2021/11/20 03:29:55;;;;;;;4.32;2.80;;;17.10;82.40;;;;;;5072881;28;20040;-77
2021/11/20 03:32:21;;;;;;;4.20;2.45;;;17.20;82.50;;;;;;5090933;28;20028;-78
2021/11/20 03:34:47;;;;;;;3.92;2.60;;;17.10;82.50;;;;;;5091127;28;20102;-78
2021/11/20 03:37:13;;;;;;;4.72;2.53;;;17.10;82.40;;;;;;5078955;28;20059;-77
2021/11/20 03:39:39;;;;;;;3.60;2.47;;;17.10;82.50;;;;;;5071267;28;20032;-77
2021/11/20 03:42:06;;;;;;;3.38;2.50;;;17.10;82.40;;;;;;5070694;28;20037;-77
2021/11/20 03:44:32;;;;;;;4.05;3.00;;;17.10;82.40;;;;;;5070869;28;20071;-76
2021/11/20 03:46:58;;;;;;;4.03;2.53;;;17.10;82.40;;;;;;5061487;28;20508;-77
2021/11/20 03:49:24;;;;;;;4.00;2.97;;;17.10;82.50;;;;;;5072518;28;20119;-77
2021/11/20 03:51:50;;;;;;;3.63;2.63;;;17.10;82.50;;;;;;5090804;28;20026;-77
2021/11/20 03:54:16;;;;;;;3.42;2.67;;;17.10;82.50;;;;;;5090730;28;20024;-77
2021/11/20 03:56:42;;;;;;;2.90;2.13;;;17.10;82.50;;;;;;5077287;28;20035;-77
2021/11/20 03:59:08;;;;;;;4.18;2.70;;;17.00;82.40;;;;;;5094050;28;20031;-77
2021/11/20 04:01:34;;;;;;;4.00;3.08;;;17.00;82.40;;;;;;5094649;28;20091;-77
2021/11/20 04:04:00;;;;;;;3.55;2.67;;;17.10;82.50;;;;;;5094875;28;20118;-77
2021/11/20 04:06:27;;;;;;;4.43;2.47;;;17.10;82.50;;;;;;5090549;28;20424;-77
2021/11/20 04:08:53;;;;;;;3.08;1.90;;;17.10;82.60;;;;;;5074283;28;20028;-77
2021/11/20 04:11:22;;;;;;;3.47;2.45;;;17.10;82.60;;;;;;5089406;28;20110;-77
2021/11/20 04:13:49;;;;;;;3.15;2.25;;;17.10;82.60;;;;;;5094565;28;20027;-77
2021/11/20 04:16:18;;;;;;;3.10;2.30;;;17.10;82.50;;;;;;5091639;28;20097;-77
2021/11/20 04:18:45;;;;;;;3.17;2.33;;;17.10;82.50;;;;;;5074157;28;20020;-76
2021/11/20 04:21:12;;;;;;;3.33;2.30;;;17.00;82.60;;;;;;5073820;28;20100;-77
2021/11/20 04:23:38;;;;;;;2.65;1.92;;;17.00;82.60;;;;;;5074017;28;20021;-79
2021/11/20 04:26:05;;;;;;;2.95;2.13;;;17.00;82.70;;;;;;5085513;28;20032;-76
2021/11/20 04:28:32;;;;;;;2.40;2.00;;;17.00;82.70;;;;;;5073591;28;20048;-77
2021/11/20 04:30:58;;;;;;;3.83;2.50;;;17.00;82.70;;;;;;5074115;28;20052;-77
2021/11/20 04:33:23;;;;;;;3.08;2.45;;;17.00;82.70;;;;;;5073604;28;20059;-76
2021/11/20 04:35:49;;;;;;;3.45;2.50;;;17.00;82.60;;;;;;5075387;28;20487;-77
2021/11/20 04:38:15;;;;;;;4.05;1.90;;;17.00;82.60;;;;;;5093952;28;20021;-77
2021/11/20 04:40:42;;;;;;;3.40;2.10;;;17.00;82.70;;;;;;5092205;28;20028;-78
2021/11/20 04:43:09;;;;;;;2.88;2.10;;;17.00;82.70;;;;;;5075830;28;20020;-78
2021/11/20 04:45:36;;;;;;;4.55;2.42;;;17.00;82.70;;;;;;5093592;28;20028;-77
2021/11/20 04:48:05;;;;;;;4.55;2.00;;;17.00;82.70;;;;;;5092958;28;20077;-77
2021/11/20 04:50:30;;;;;;;3.08;1.90;;;17.00;82.70;;;;;;5093891;28;20037;-78
2021/11/20 04:52:56;;;;;;;2.40;1.70;;;16.90;82.70;;;;;;5093703;28;20209;-77
2021/11/20 04:55:23;;;;;;;3.42;2.17;;;17.00;82.80;;;;;;5090586;28;20024;-77
2021/11/20 04:57:49;;;;;;;2.60;1.88;;;17.00;82.70;;;;;;5075465;28;20396;-77
2021/11/20 05:00:20;;;;;;;3.33;2.10;;;17.00;82.70;;;;;;5073332;28;20024;-77
2021/11/20 05:02:45;;;;;;;2.40;1.70;;;16.90;82.80;;;;;;5073142;28;20043;-78
2021/11/20 05:05:12;;;;;;;3.22;2.00;;;17.00;82.80;;;;;;5073218;28;20032;-77
2021/11/20 05:07:38;;;;;;;2.58;1.75;;;17.00;82.70;;;;;;5088514;28;20105;-77
2021/11/20 05:10:05;;;;;;;2.90;1.95;;;17.00;82.80;;;;;;5087288;28;20492;-76
2021/11/20 05:12:31;;;;;;;2.72;1.85;;;16.90;82.70;;;;;;5093274;28;20036;-77
2021/11/20 05:14:57;;;;;;;2.38;1.63;;;17.00;82.80;;;;;;5093307;28;20392;-77
2021/11/20 05:17:24;;;;;;;2.58;1.65;;;16.90;82.70;;;;;;5061094;28;20032;-76
2021/11/20 05:19:49;;;;;;;2.33;1.80;;;16.90;82.80;;;;;;5073053;28;20036;-77
2021/11/20 05:22:15;;;;;;;3.20;2.00;;;16.90;82.80;;;;;;5072956;28;20020;-77
2021/11/20 05:24:41;;;;;;;3.00;1.60;;;16.90;82.80;;;;;;5073810;28;20054;-77
2021/11/20 05:27:07;;;;;;;3.25;1.90;;;16.90;82.70;;;;;;5081626;28;20033;-76
2021/11/20 05:29:48;;;;;;;2.33;1.58;;;16.90;82.80;;;;;;5072716;28;20041;-77
2021/11/20 05:32:14;;;;;;;3.08;1.63;;;16.90;82.80;;;;;;5072703;28;20066;-77
2021/11/20 05:34:40;;;;;;;2.60;1.70;;;16.90;82.80;;;;;;5072240;28;20036;-77
2021/11/20 05:37:06;;;;;;;2.47;1.65;;;16.90;82.70;;;;;;5082719;28;20026;-76
2021/11/20 05:39:31;;;;;;;2.22;1.63;;;16.90;82.80;;;;;;5092547;28;20385;-76
2021/11/20 05:41:59;;;;;;;2.70;1.83;;;16.90;82.80;;;;;;5052471;28;20473;-77
2021/11/20 05:44:25;;;;;;;3.38;2.00;;;16.90;82.80;;;;;;5051029;28;20517;-77
2021/11/20 05:46:51;;;;;;;2.13;1.55;;;16.90;82.70;;;;;;5051701;28;20039;-77
2021/11/20 05:49:18;;;;;;;2.00;1.60;;;16.90;82.80;;;;;;5092473;28;20540;-76
2021/11/20 05:51:44;;;;;;;2.70;1.42;;;16.80;82.70;;;;;;5092398;28;20034;-78
2021/11/20 05:54:10;;;;;;;2.05;1.58;;;16.90;82.80;;;;;;5090139;28;20103;-78
2021/11/20 05:56:36;;;;;;;1.80;1.13;;;16.90;82.80;;;;;;5082330;28;20032;-77
2021/11/20 05:59:03;;;;;;;2.20;1.60;;;16.90;82.70;;;;;;5072435;28;20031;-75
2021/11/20 06:01:30;;;;;;;2.08;1.40;;;16.80;82.70;;;;;;5073062;28;20025;-76
2021/11/20 06:03:55;;;;;;;2.05;1.42;;;16.90;82.70;;;;;;5072236;28;20024;-77
2021/11/20 06:06:22;;;;;;;1.83;1.50;;;16.90;82.70;;;;;;5072203;28;20017;-76
2021/11/20 06:08:48;;;;;;;2.08;1.70;;;16.80;82.70;;;;;;5071873;28;20066;-76
2021/11/20 06:11:13;;;;;;;2.13;1.55;;;16.80;82.80;;;;;;5085587;28;20020;-77
2021/11/20 06:13:39;;;;;;;2.72;1.23;;;16.80;82.70;;;;;;5091851;28;20028;-76
2021/11/20 06:16:05;;;;;;;3.05;1.70;;;16.80;82.80;;;;;;5090297;28;20099;-76
2021/11/20 06:18:34;;;;;;;2.47;1.40;;;16.80;82.70;;;;;;5071826;28;20024;-76
2021/11/20 06:21:02;;;;;;;1.90;1.50;;;16.80;82.70;;;;;;5071891;28;20081;-76
2021/11/20 06:23:28;;;;;;;3.88;1.40;;;16.80;82.70;;;;;;5071598;28;20434;-77
2021/11/20 06:25:55;;;;;;;2.20;1.67;;;16.80;82.80;;;;;;5082196;28;20028;-76
2021/11/20 06:28:21;;;;;;;3.25;1.40;;;16.80;82.70;;;;;;5071543;28;20088;-77
2021/11/20 06:30:47;;;;;;;2.20;1.58;;;16.80;82.80;;;;;;5071334;28;20039;-76
2021/11/20 06:33:13;;;;;;;3.72;1.67;;;16.80;82.80;;;;;;5071698;28;20392;-76
2021/11/20 06:35:38;;;;;;;2.60;1.95;;;16.80;82.80;;;;;;5053398;28;20536;-76
2021/11/20 06:38:05;;;;;;;2.08;1.42;;;16.80;82.80;;;;;;5071165;28;20027;-76
2021/11/20 06:40:35;;;;;;;3.60;1.40;;;16.80;82.80;;;;;;5083419;28;20111;-76
2021/11/20 06:43:03;;;;;;;2.25;1.55;;;16.70;82.70;;;;;;5071526;28;20031;-76
2021/11/20 06:45:36;;;;;;;1.63;1.20;;;16.80;82.80;;;;;;5070968;28;20150;-76
2021/11/20 06:48:02;;;;;;;2.97;1.98;;;16.80;82.80;;;;;;5069623;28;20027;-75
2021/11/20 06:50:32;;;;;;;2.30;1.40;;;16.80;82.80;;;;;;5091407;28;20073;-76
2021/11/20 06:53:02;;;;;;;2.58;1.30;;;16.80;82.70;;;;;;5073541;28;20051;-76
2021/11/20 06:55:30;;;;;;;1.60;1.10;;;16.80;82.70;;;;;;5082884;28;20020;-76
2021/11/20 06:58:54;;;;;;;1.98;1.42;;;16.80;82.60;;;;;;5075204;28;20396;-76
2021/11/20 07:00:56;;;;;;;;;;;16.80;82.70;;;;;;5064079;28;20124;-76
2021/11/20 07:03:32;;;;;;;1.65;1.10;;;16.80;82.70;;;;;;5071220;28;19908;-75
2021/11/20 07:06:03;;;;;;;1.80;1.17;;;16.70;82.60;;;;;;5053163;28;20025;-76
2021/11/20 07:08:29;;;;;;;1.77;1.17;;;16.80;82.60;;;;;;5070602;28;20485;-77
2021/11/20 07:10:57;;;;;;;2.00;1.73;;;16.80;82.50;;;;;;5081666;28;20024;-77
2021/11/20 07:13:23;;;;;;;2.22;1.20;;;16.80;82.40;;;;;;5091235;28;20024;-76
2021/11/20 07:15:50;;;;;;;1.77;1.10;;;16.80;82.30;;;;;;5091136;28;20035;-77
2021/11/20 07:18:17;;;;;;;2.20;1.23;;;16.80;82.20;;;;;;5072647;28;20391;-78
2021/11/20 07:20:44;;;;;;;1.70;1.20;;;16.80;82.40;;;;;;5070756;28;20503;-77
2021/11/20 07:23:10;;;;;;;1.40;1.10;;;16.80;82.30;;;;;;5071091;28;20059;-77
2021/11/20 07:25:37;;;;;;;1.40;0.90;;;16.90;82.40;;;;;;5078887;28;20039;-77
2021/11/20 07:28:04;;;;;;;1.98;1.40;;;16.90;82.30;;;;;;5075144;28;20028;-77
2021/11/20 07:30:34;;;;;;;3.63;1.00;;;16.90;82.20;;;;;;5070776;28;20122;-77
2021/11/20 07:33:02;;;;;;;1.35;1.00;;;17.00;82.10;;;;;;5054405;28;20389;-77
2021/11/20 07:35:33;;;;;;;4.65;1.20;;;17.00;82.00;;;;;;5074787;28;20035;-76
2021/11/20 07:38:00;;;;;;;1.55;1.25;;;17.00;82.00;;;;;;5089968;28;20035;-77
2021/11/20 07:40:28;;;;;;;1.35;0.90;;;17.00;81.90;;;;;;5087832;28;20514;-78
2021/11/20 07:42:54;;;;;;;1.65;0.88;;;17.10;81.90;;;;;;5074927;28;20021;-77
2021/11/20 07:45:21;;;;;;;2.28;1.10;;;17.10;81.80;;;;;;5074653;28;20543;-78
2021/11/20 07:47:46;;;;;;;2.22;1.10;;;17.10;81.80;;;;;;5087312;28;20027;-77
2021/11/20 07:50:16;;;;;;;3.05;1.65;;;17.20;81.70;;;;;;5094699;28;20031;-76
2021/11/20 07:52:42;;;;;;;1.92;1.00;;;17.20;81.50;;;;;;5076581;28;20028;-76
2021/11/20 07:55:11;;;;;;;2.08;1.08;;;17.30;81.50;;;;;;5090803;28;20035;-77
2021/11/20 07:57:36;;;;;;;1.88;1.20;;;17.30;81.60;;;;;;5085060;28;20032;-77
2021/11/20 08:00:06;;;;;;;2.13;1.20;;;17.30;81.50;;;;;;5076566;28;20035;-76
2021/11/20 08:02:31;;;;;;;2.10;1.13;;;17.30;81.50;;;;;;5094269;28;20411;-77
2021/11/20 08:04:57;;;;;;;1.15;0.90;;;17.40;81.50;;;;;;5094733;28;20028;-77
2021/11/20 08:07:23;;;;;;;2.78;1.00;;;17.50;81.50;;;;;;5084684;28;20028;-77
2021/11/20 08:09:48;;;;;;;1.25;0.90;;;17.50;81.40;;;;;;5074757;28;20418;-77
2021/11/20 08:12:14;;;;;;;1.70;0.80;;;17.50;81.30;;;;;;5076221;28;20468;-77
2021/11/20 08:14:40;;;;;;;1.40;0.90;;;17.60;81.30;;;;;;5094252;28;20401;-77
2021/11/20 08:17:06;;;;;;;1.88;1.13;;;17.60;81.10;;;;;;5088519;28;20035;-77
2021/11/20 08:19:33;;;;;;;1.42;1.02;;;17.60;81.10;;;;;;5073949;28;20052;-77
2021/11/20 08:21:59;;;;;;;1.67;1.10;;;17.70;81.10;;;;;;5073885;28;20029;-77
2021/11/20 08:24:26;;;;;;;1.80;1.25;;;17.70;81.10;;;;;;5073749;28;20151;-77
2021/11/20 08:26:52;;;;;;;1.52;1.00;;;17.70;80.90;;;;;;5088202;28;20032;-77
2021/11/20 08:29:21;;;;;;;2.17;0.88;;;17.60;80.70;;;;;;5073894;28;20036;-77
2021/11/20 08:31:50;;;;;;;1.58;1.10;;;17.70;80.70;;;;;;5073501;28;20525;-77
2021/11/20 08:34:17;;;;;;;3.05;0.80;;;17.70;80.80;;;;;;5055971;28;20024;-76
2021/11/20 08:36:45;;;;;;;3.15;0.88;;;17.70;80.70;;;;;;5074136;28;20078;-76
2021/11/20 08:39:14;;;;;;;1.85;0.90;;;17.70;80.70;;;;;;5094303;28;20028;-76
2021/11/20 08:41:41;;;;;;;1.00;0.55;;;17.70;80.80;;;;;;5077003;28;20071;-77
2021/11/20 08:44:06;;;;;;;1.15;0.70;;;17.70;80.70;;;;;;5072815;28;20054;-76
2021/11/20 08:46:33;;;;;;;1.42;0.70;;;17.80;80.80;;;;;;5073169;28;20121;-77
2021/11/20 08:49:00;;;;;;;3.35;0.98;;;17.80;80.90;;;;;;5078647;28;20105;-78
2021/11/20 08:51:27;;;;;;;1.05;0.60;;;17.80;80.90;;;;;;5093581;28;20023;-79
2021/11/20 08:53:53;;;;;;;1.42;0.80;;;17.80;80.80;;;;;;5086796;28;20443;-83
2021/11/20 08:56:20;;;;;;;1.80;1.08;;;17.80;80.70;;;;;;5086464;28;20028;-84
2021/11/20 08:58:47;;;;;;;1.00;0.73;;;17.80;80.60;;;;;;5093543;28;20012;-84
2021/11/20 09:01:19;;;;;;;1.38;0.70;;;17.80;80.60;;;;;;5074254;28;20550;-82
2021/11/20 09:03:51;;;;;;;2.00;1.10;;;17.90;80.60;;;;;;5073665;28;20400;-80
2021/11/20 09:06:30;;;;;;;2.45;1.10;;;17.90;80.60;;;;;;5083980;28;20017;-80
2021/11/20 09:08:58;;;;;;;3.72;1.20;;;18.00;80.50;;;;;;5060733;28;20032;-82
2021/11/20 09:11:33;;;;;;;3.08;0.88;;;18.00;80.30;;;;;;5079586;28;20443;-80
2021/11/20 09:14:01;;;;;;;3.63;1.65;;;18.00;80.20;;;;;;5072984;28;20033;-81
2021/11/20 09:16:27;;;;;;;2.25;1.10;;;18.00;80.30;;;;;;5054676;28;20031;-79
2021/11/20 09:18:55;;;;;;;1.30;0.80;;;18.00;80.40;;;;;;5079554;28;20503;-81
2021/11/20 09:21:21;;;;;;;2.20;1.10;;;18.00;80.40;;;;;;5054993;28;20020;-82
2021/11/20 09:23:50;;;;;;;3.25;1.40;;;18.00;80.30;;;;;;5072537;28;20052;-83
2021/11/20 09:26:17;;;;;;;5.55;2.28;;;18.10;80.40;;;;;;5072054;28;20404;-85
2021/11/20 09:28:44;;;;;;;24.67;2.58;;;18.20;80.40;;;;;;5072855;28;20559;-82
2021/11/20 09:31:11;;;;;;;8.63;1.65;;;18.20;80.90;;;;;;5072836;28;20385;-84
2021/11/20 09:33:37;;;;;;;4.32;1.90;;;18.30;80.50;;;;;;5054214;28;20025;-84
2021/11/20 09:36:04;;;;;;;9.60;2.08;;;18.30;80.40;;;;;;5054466;28;20032;-87
2021/11/20 09:38:31;;;;;;;4.15;1.70;;;18.30;80.30;;;;;;5072169;28;20056;-84
2021/11/20 09:41:07;;;;;;;7.00;1.80;;;18.30;80.40;;;;;;5072336;28;20021;-85
2021/11/20 09:43:36;;;;;;;;;;;18.30;80.30;;;;;;5054685;28;20039;-84
2021/11/20 09:46:16;;;;;;;5.63;1.75;;;18.30;80.50;;;;;;5071712;28;19935;-86
2021/11/20 09:48:46;;;;;;;6.10;1.92;;;18.40;80.70;;;;;;5073537;28;20041;-86
2021/11/20 09:51:27;;;;;;;4.50;1.55;;;18.40;80.80;;;;;;5080440;28;20450;-86
2021/11/20 09:53:55;;;;;;;3.25;1.58;;;18.40;80.70;;;;;;5053851;28;20506;-85
2021/11/20 09:56:28;;;;;;;6.47;1.65;;;18.40;80.80;;;;;;5082761;28;20024;-86
2021/11/20 09:59:00;;;;;;;7.97;1.55;;;18.40;80.80;;;;;;5053460;28;20033;-85
2021/11/20 10:02:10;;;;;;;5.53;1.92;;;18.40;80.80;;;;;;5084831;28;20460;-86
2021/11/20 10:04:51;;;;;;;6.00;1.48;;;18.40;81.50;;;;;;5061649;28;20035;-82
2021/11/20 10:07:23;;;;;;;5.72;1.70;;;18.50;80.90;;;;;;5080218;28;20097;-81
2021/11/20 10:09:58;;;;;;;4.20;1.77;;;18.50;80.80;;;;;;5072125;28;20117;-83
2021/11/20 10:12:33;;;;;;;3.05;1.55;;;18.50;80.80;;;;;;5076782;28;20504;-84
2021/11/20 10:15:15;;;;;;;6.20;1.50;;;18.50;80.60;;;;;;5079432;28;20399;-83
2021/11/20 10:17:43;;;;;;;4.82;1.67;;;18.50;80.60;;;;;;5071741;28;20342;-82
2021/11/20 10:20:35;;;;;;;5.22;1.70;;;18.50;80.50;;;;;;5071585;28;20032;-82
2021/11/20 10:23:04;;;;;;;6.07;1.80;;;18.50;80.40;;;;;;5069630;28;20024;-81
2021/11/20 10:26:13;;;;;;;4.78;1.55;;;18.50;80.30;;;;;;5071104;28;20085;-84
2021/11/20 10:28:50;;;;;;;8.07;1.58;;;18.50;80.30;;;;;;5070092;28;20024;-84
2021/11/20 10:31:32;;;;;;;4.35;1.48;;;18.50;80.30;;;;;;5062511;28;20028;-83
2021/11/20 10:34:00;;;;;;;5.60;1.60;;;18.50;80.30;;;;;;5102209;28;20063;-84
2021/11/20 10:36:58;;;;;;;4.93;1.77;;;18.50;80.30;;;;;;5086095;28;20108;-82
2021/11/20 10:39:28;;;;;;;6.72;1.42;;;18.50;80.20;;;;;;5057770;28;20037;-84
2021/11/20 10:41:56;;;;;;;5.00;1.50;;;18.50;80.10;;;;;;5052607;28;20024;-83
2021/11/20 10:44:45;;;;;;;4.22;1.55;;;18.50;80.20;;;;;;5085527;28;20035;-84
2021/11/20 10:47:11;;;;;;;5.57;1.67;;;18.50;80.20;;;;;;5074995;28;20074;-82
2021/11/20 10:49:48;;;;;;;3.03;1.50;;;18.50;80.10;;;;;;5082045;28;20037;-83
2021/11/20 10:52:32;;;;;;;4.97;1.55;;;18.50;80.00;;;;;;5084773;28;20480;-83
2021/11/20 10:55:23;;;;;;;3.17;1.95;;;18.50;80.00;;;;;;5074062;28;20387;-82
2021/11/20 10:58:22;;;;;;;2.78;1.40;;;18.50;79.90;;;;;;5080585;28;20028;-84
2021/11/20 11:01:20;;;;;;;3.85;1.73;;;18.50;79.80;;;;;;5078727;28;20028;-84
2021/11/20 11:03:51;;;;;;;3.30;1.55;;;18.50;79.70;;;;;;5052057;28;20059;-85
2021/11/20 11:06:56;;;;;;;2.58;1.55;;;18.50;79.60;;;;;;5078020;28;20031;-84
2021/11/20 11:09:34;;;;;;;3.97;1.50;;;18.50;79.60;;;;;;5082468;28;20039;-82
2021/11/20 11:12:21;;;;;;;2.78;1.67;;;18.50;79.50;;;;;;5064229;28;20036;-84
2021/11/20 11:15:07;;;;;;;7.60;2.38;;;18.50;79.40;;;;;;5073532;28;20021;-85
2021/11/20 11:17:55;;;;;;;4.35;2.28;;;18.60;79.50;;;;;;5086426;28;20132;-85
2021/11/20 11:20:58;;;;;;;5.70;1.80;;;18.50;79.40;;;;;;5075802;28;20016;-86
2021/11/20 11:23:41;;;;;;;5.03;2.75;;;18.50;79.30;;;;;;5039257;28;20032;-82
2021/11/20 11:26:10;;;;;;;5.75;3.70;;;18.60;79.40;;;;;;5065493;28;20032;-82
2021/11/20 11:28:44;;;;;;;13.45;7.75;;;18.60;79.60;;;;;;5074033;28;20039;-84
2021/11/20 11:31:26;;;;;;;16.38;7.85;;;18.60;80.50;;;;;;5079022;28;20073;-85
2021/11/20 11:34:02;;;;;;;20.30;10.05;;;18.60;80.60;;;;;;5062549;28;20500;-83
2021/11/20 11:36:35;;;;;;;;;;;18.70;80.70;;;;;;5089551;28;20020;-89
2021/11/20 11:39:06;;;;;;;14.60;7.60;;;18.70;80.80;;;;;;5059279;28;19904;-84
2021/11/20 11:41:47;;;;;;;13.02;6.50;;;18.70;80.80;;;;;;5079932;28;20025;-82
2021/11/20 11:44:27;;;;;;;15.38;6.88;;;18.80;80.80;;;;;;5072204;28;20024;-84
2021/11/20 11:46:56;;;;;;;13.13;6.30;;;18.80;80.50;;;;;;5088910;28;20550;-85
2021/11/20 11:49:34;;;;;;;11.25;5.95;;;19.00;80.30;;;;;;5090207;28;20467;-85
2021/11/20 11:52:30;;;;;;;12.07;5.25;;;19.10;80.00;;;;;;5078712;28;20115;-84
2021/11/20 11:55:17;;;;;;;15.02;5.35;;;19.10;79.90;;;;;;5068622;28;20025;-81
2021/11/20 11:58:07;;;;;;;8.65;4.32;;;19.20;79.60;;;;;;5079412;28;20036;-84
2021/11/20 12:00:53;;;;;;;12.32;4.25;;;19.20;79.40;;;;;;5073315;28;20488;-84
2021/11/20 12:03:29;;;;;;;9.43;3.83;;;19.30;79.50;;;;;;5062237;28;20488;-86
2021/11/20 12:06:03;;;;;;;9.77;3.92;;;19.30;79.80;;;;;;5078441;28;20067;-86
2021/11/20 12:08:37;;;;;;;8.23;3.60;;;19.40;79.80;;;;;;5085452;28;20124;-83
2021/11/20 12:11:15;;;;;;;8.88;3.47;;;19.40;79.70;;;;;;5057734;28;20078;-82
2021/11/20 12:13:52;;;;;;;10.98;3.75;;;19.50;79.90;;;;;;5080647;28;20028;-82
2021/11/20 12:16:21;;;;;;;5.88;2.97;;;19.50;79.70;;;;;;5082733;28;20039;-82
2021/11/20 12:18:56;;;;;;;4.88;2.65;;;19.50;79.50;;;;;;5086746;28;20545;-82
2021/11/20 12:21:53;;;;;;;10.57;3.20;;;19.50;79.40;;;;;;5079739;28;20023;-82
2021/11/20 12:24:23;;;;;;;;;;;19.60;79.30;;;;;;5079566;28;20285;-82
2021/11/20 12:26:52;;;;;;;6.85;3.28;;;19.70;79.10;;;;;;5090055;28;19908;-81
2021/11/20 12:29:39;;;;;;;6.53;2.63;;;19.70;79.70;;;;;;5079341;28;20028;-81
2021/11/20 12:32:45;;;;;;;6.88;2.58;;;19.70;78.70;;;;;;5080855;28;20132;-81
2021/11/20 12:35:48;;;;;;;8.88;2.70;;;19.80;78.70;;;;;;5063716;28;20027;-81
2021/11/20 12:38:35;;;;;;;4.93;2.58;;;19.80;78.60;;;;;;5079895;28;20035;-81
2021/11/20 12:41:26;;;;;;;7.97;2.78;;;19.90;78.50;;;;;;5060522;28;20405;-81
2021/11/20 12:44:16;;;;;;;7.22;2.45;;;19.90;78.30;;;;;;5098057;28;20035;-81
2021/11/20 12:46:52;;;;;;;4.22;2.22;;;19.90;78.00;;;;;;5089641;28;20419;-81
2021/11/20 12:49:36;;;;;;;4.88;3.22;;;20.00;77.90;;;;;;5060999;28;20484;-82
2021/11/20 12:52:21;;;;;;;5.90;2.53;;;20.00;77.90;;;;;;5080740;28;20029;-81
2021/11/20 12:54:49;;;;;;;5.63;2.72;;;20.00;78.30;;;;;;5071091;28;20058;-84
2021/11/20 12:57:23;;;;;;;4.60;2.47;;;20.00;77.50;;;;;;5073017;28;20021;-81
2021/11/20 13:00:16;;;;;;;4.05;2.05;;;20.00;77.10;;;;;;5083090;28;20016;-80
2021/11/20 13:03:10;;;;;;;6.25;2.20;;;20.00;77.10;;;;;;5076155;28;20025;-81
2021/11/20 13:05:55;;;;;;;4.93;2.00;;;20.10;76.80;;;;;;5084156;28;20064;-83
2021/11/20 13:08:48;;;;;;;3.40;1.90;;;20.10;76.70;;;;;;5087463;28;20055;-83
2021/11/20 13:11:22;;;;;;;3.40;2.03;;;20.10;76.60;;;;;;5063792;28;20028;-82
2021/11/20 13:13:53;;;;;;;2.95;2.10;;;20.10;76.70;;;;;;5082419;28;20035;-83